sensor_id;sensor_type;location;lat;lon;timestamp;temperature;humidity
84141;DHT22;74257;52.540;13.416;2024-01-11T00:00:31;21.50;41.00
84141;DHT22;74257;52.540;13.416;2024-01-11T00:03:17;21.50;41.00
84141;DHT22;74257;52.540;13.416;2024-01-11T00:05:43;21.50;40.90
84141;DHT22;74257;52.540;13.416;2024-01-11T00:08:08;21.40;40.90
84141;DHT22;74257;52.540;13.416;2024-01-11T00:10:36;21.40;40.90
84141;DHT22;74257;52.540;13.416;2024-01-11T00:13:02;21.40;40.90
84141;DHT22;74257;52.540;13.416;2024-01-11T00:15:28;21.40;40.80
84141;DHT22;74257;52.540;13.416;2024-01-11T00:17:53;21.40;40.70
84141;DHT22;74257;52.540;13.416;2024-01-11T00:20:19;21.40;40.70
84141;DHT22;74257;52.540;13.416;2024-01-11T00:22:45;21.30;40.70
84141;DHT22;74257;52.540;13.416;2024-01-11T00:25:11;21.30;40.60
84141;DHT22;74257;52.540;13.416;2024-01-11T00:27:37;21.30;40.50
84141;DHT22;74257;52.540;13.416;2024-01-11T00:30:03;21.30;40.60
84141;DHT22;74257;52.540;13.416;2024-01-11T00:32:29;21.30;40.70
84141;DHT22;74257;52.540;13.416;2024-01-11T00:34:55;21.30;40.70
84141;DHT22;74257;52.540;13.416;2024-01-11T00:37:21;21.30;40.70
84141;DHT22;74257;52.540;13.416;2024-01-11T00:39:47;21.30;40.80
84141;DHT22;74257;52.540;13.416;2024-01-11T00:42:13;21.30;40.70
84141;DHT22;74257;52.540;13.416;2024-01-11T00:44:39;21.30;40.60
84141;DHT22;74257;52.540;13.416;2024-01-11T00:47:04;21.20;40.50
84141;DHT22;74257;52.540;13.416;2024-01-11T00:49:30;21.20;40.40
84141;DHT22;74257;52.540;13.416;2024-01-11T00:51:56;21.20;40.40
84141;DHT22;74257;52.540;13.416;2024-01-11T00:54:22;21.20;40.30
84141;DHT22;74257;52.540;13.416;2024-01-11T00:56:49;21.10;40.20
84141;DHT22;74257;52.540;13.416;2024-01-11T00:59:15;21.10;40.20
84141;DHT22;74257;52.540;13.416;2024-01-11T01:01:49;21.10;40.20
84141;DHT22;74257;52.540;13.416;2024-01-11T01:04:15;21.10;40.20
84141;DHT22;74257;52.540;13.416;2024-01-11T01:06:41;21.10;40.20
84141;DHT22;74257;52.540;13.416;2024-01-11T01:09:07;21.10;40.10
84141;DHT22;74257;52.540;13.416;2024-01-11T01:11:33;21.10;40.10
84141;DHT22;74257;52.540;13.416;2024-01-11T01:13:59;21.10;40.10
84141;DHT22;74257;52.540;13.416;2024-01-11T01:16:25;21.10;40.00
84141;DHT22;74257;52.540;13.416;2024-01-11T01:18:51;21.10;40.00
84141;DHT22;74257;52.540;13.416;2024-01-11T01:21:16;21.10;40.00
84141;DHT22;74257;52.540;13.416;2024-01-11T01:23:42;21.10;40.00
84141;DHT22;74257;52.540;13.416;2024-01-11T01:26:08;21.10;40.00
84141;DHT22;74257;52.540;13.416;2024-01-11T01:28:34;21.00;40.00
84141;DHT22;74257;52.540;13.416;2024-01-11T01:30:59;21.00;40.00
84141;DHT22;74257;52.540;13.416;2024-01-11T01:33:25;21.00;40.00
84141;DHT22;74257;52.540;13.416;2024-01-11T01:35:51;21.00;40.10
84141;DHT22;74257;52.540;13.416;2024-01-11T01:38:17;21.00;40.00
84141;DHT22;74257;52.540;13.416;2024-01-11T01:40:43;21.00;40.00
84141;DHT22;74257;52.540;13.416;2024-01-11T01:43:09;21.00;40.00
84141;DHT22;74257;52.540;13.416;2024-01-11T01:45:35;20.90;40.00
84141;DHT22;74257;52.540;13.416;2024-01-11T01:48:02;20.90;40.00
84141;DHT22;74257;52.540;13.416;2024-01-11T01:50:28;20.90;40.00
84141;DHT22;74257;52.540;13.416;2024-01-11T01:52:55;20.90;40.00
84141;DHT22;74257;52.540;13.416;2024-01-11T01:55:22;20.90;40.00
84141;DHT22;74257;52.540;13.416;2024-01-11T01:57:49;20.90;39.90
84141;DHT22;74257;52.540;13.416;2024-01-11T02:00:15;20.90;39.90
84141;DHT22;74257;52.540;13.416;2024-01-11T02:02:46;20.90;39.90
84141;DHT22;74257;52.540;13.416;2024-01-11T02:05:14;20.90;39.90
84141;DHT22;74257;52.540;13.416;2024-01-11T02:07:42;20.80;39.80
84141;DHT22;74257;52.540;13.416;2024-01-11T02:10:08;20.80;39.80
84141;DHT22;74257;52.540;13.416;2024-01-11T02:12:36;20.80;39.80
84141;DHT22;74257;52.540;13.416;2024-01-11T02:15:03;20.80;39.80
84141;DHT22;74257;52.540;13.416;2024-01-11T02:17:30;20.80;39.80
84141;DHT22;74257;52.540;13.416;2024-01-11T02:19:56;20.80;39.80
84141;DHT22;74257;52.540;13.416;2024-01-11T02:22:27;20.80;39.80
84141;DHT22;74257;52.540;13.416;2024-01-11T02:24:53;20.80;39.90
84141;DHT22;74257;52.540;13.416;2024-01-11T02:27:19;20.70;39.90
84141;DHT22;74257;52.540;13.416;2024-01-11T02:29:45;20.70;39.90
84141;DHT22;74257;52.540;13.416;2024-01-11T02:32:11;20.70;39.90
84141;DHT22;74257;52.540;13.416;2024-01-11T02:34:37;20.70;39.80
84141;DHT22;74257;52.540;13.416;2024-01-11T02:37:05;20.70;39.80
84141;DHT22;74257;52.540;13.416;2024-01-11T02:39:31;20.70;39.80
84141;DHT22;74257;52.540;13.416;2024-01-11T02:41:58;20.70;39.80
84141;DHT22;74257;52.540;13.416;2024-01-11T02:44:24;20.70;39.90
84141;DHT22;74257;52.540;13.416;2024-01-11T02:46:50;20.70;39.80
84141;DHT22;74257;52.540;13.416;2024-01-11T02:49:16;20.60;39.80
84141;DHT22;74257;52.540;13.416;2024-01-11T02:51:42;20.60;39.80
84141;DHT22;74257;52.540;13.416;2024-01-11T02:54:07;20.60;39.70
84141;DHT22;74257;52.540;13.416;2024-01-11T02:56:34;20.60;39.80
84141;DHT22;74257;52.540;13.416;2024-01-11T02:58:59;20.60;39.80
84141;DHT22;74257;52.540;13.416;2024-01-11T03:01:25;20.60;39.70
84141;DHT22;74257;52.540;13.416;2024-01-11T03:03:51;20.60;39.80
84141;DHT22;74257;52.540;13.416;2024-01-11T03:06:17;20.60;39.70
84141;DHT22;74257;52.540;13.416;2024-01-11T03:08:48;20.60;39.70
84141;DHT22;74257;52.540;13.416;2024-01-11T03:11:14;20.60;39.70
84141;DHT22;74257;52.540;13.416;2024-01-11T03:13:42;20.50;39.70
84141;DHT22;74257;52.540;13.416;2024-01-11T03:16:08;20.60;39.70
84141;DHT22;74257;52.540;13.416;2024-01-11T03:18:34;20.60;39.70
84141;DHT22;74257;52.540;13.416;2024-01-11T03:21:00;20.50;39.70
84141;DHT22;74257;52.540;13.416;2024-01-11T03:23:25;20.50;39.80
84141;DHT22;74257;52.540;13.416;2024-01-11T03:25:51;20.50;39.80
84141;DHT22;74257;52.540;13.416;2024-01-11T03:28:17;20.50;39.80
84141;DHT22;74257;52.540;13.416;2024-01-11T03:30:43;20.50;39.80
84141;DHT22;74257;52.540;13.416;2024-01-11T03:33:09;20.50;39.80
84141;DHT22;74257;52.540;13.416;2024-01-11T03:35:35;20.50;39.80
84141;DHT22;74257;52.540;13.416;2024-01-11T03:38:00;20.50;39.80
84141;DHT22;74257;52.540;13.416;2024-01-11T03:40:26;20.50;39.70
84141;DHT22;74257;52.540;13.416;2024-01-11T03:42:52;20.50;39.80
84141;DHT22;74257;52.540;13.416;2024-01-11T03:45:18;20.50;39.70
84141;DHT22;74257;52.540;13.416;2024-01-11T03:47:47;20.50;39.70
84141;DHT22;74257;52.540;13.416;2024-01-11T03:50:13;20.50;39.70
84141;DHT22;74257;52.540;13.416;2024-01-11T03:52:39;20.50;39.70
84141;DHT22;74257;52.540;13.416;2024-01-11T03:55:05;20.50;39.70
84141;DHT22;74257;52.540;13.416;2024-01-11T03:57:32;20.50;39.70
84141;DHT22;74257;52.540;13.416;2024-01-11T03:59:57;20.40;39.70
84141;DHT22;74257;52.540;13.416;2024-01-11T04:02:25;20.40;39.70
84141;DHT22;74257;52.540;13.416;2024-01-11T04:04:50;20.40;39.70
84141;DHT22;74257;52.540;13.416;2024-01-11T04:07:16;20.30;39.70
84141;DHT22;74257;52.540;13.416;2024-01-11T04:09:42;20.30;39.60
84141;DHT22;74257;52.540;13.416;2024-01-11T04:12:08;20.30;39.60
84141;DHT22;74257;52.540;13.416;2024-01-11T04:14:38;20.30;39.60
84141;DHT22;74257;52.540;13.416;2024-01-11T04:17:05;20.30;39.60
84141;DHT22;74257;52.540;13.416;2024-01-11T04:19:30;20.30;39.50
84141;DHT22;74257;52.540;13.416;2024-01-11T04:21:56;20.30;39.60
84141;DHT22;74257;52.540;13.416;2024-01-11T04:24:22;20.30;39.60
84141;DHT22;74257;52.540;13.416;2024-01-11T04:26:48;20.30;39.60
84141;DHT22;74257;52.540;13.416;2024-01-11T04:29:14;20.30;39.60
84141;DHT22;74257;52.540;13.416;2024-01-11T04:31:40;20.30;39.60
84141;DHT22;74257;52.540;13.416;2024-01-11T04:34:05;20.30;39.60
84141;DHT22;74257;52.540;13.416;2024-01-11T04:36:31;20.30;39.60
84141;DHT22;74257;52.540;13.416;2024-01-11T04:38:57;20.30;39.60
84141;DHT22;74257;52.540;13.416;2024-01-11T04:41:23;20.30;39.60
84141;DHT22;74257;52.540;13.416;2024-01-11T04:43:48;20.30;39.60
84141;DHT22;74257;52.540;13.416;2024-01-11T04:46:19;20.30;39.60
84141;DHT22;74257;52.540;13.416;2024-01-11T04:48:46;20.30;39.60
84141;DHT22;74257;52.540;13.416;2024-01-11T04:51:13;20.30;39.60
84141;DHT22;74257;52.540;13.416;2024-01-11T04:53:39;20.30;39.60
84141;DHT22;74257;52.540;13.416;2024-01-11T04:56:10;20.20;39.60
84141;DHT22;74257;52.540;13.416;2024-01-11T04:58:36;20.20;39.60
84141;DHT22;74257;52.540;13.416;2024-01-11T05:01:05;20.20;39.60
84141;DHT22;74257;52.540;13.416;2024-01-11T05:03:31;20.20;39.60
84141;DHT22;74257;52.540;13.416;2024-01-11T05:06:00;20.20;39.60
84141;DHT22;74257;52.540;13.416;2024-01-11T05:08:26;20.20;39.50
84141;DHT22;74257;52.540;13.416;2024-01-11T05:10:53;20.20;39.50
84141;DHT22;74257;52.540;13.416;2024-01-11T05:13:19;20.10;39.60
84141;DHT22;74257;52.540;13.416;2024-01-11T05:15:45;20.10;39.60
84141;DHT22;74257;52.540;13.416;2024-01-11T05:18:11;20.10;39.60
84141;DHT22;74257;52.540;13.416;2024-01-11T05:20:38;20.10;39.60
84141;DHT22;74257;52.540;13.416;2024-01-11T05:23:04;20.10;39.60
84141;DHT22;74257;52.540;13.416;2024-01-11T05:25:31;20.10;39.50
84141;DHT22;74257;52.540;13.416;2024-01-11T05:28:00;20.10;39.60
84141;DHT22;74257;52.540;13.416;2024-01-11T05:30:26;20.10;39.60
84141;DHT22;74257;52.540;13.416;2024-01-11T05:32:53;20.10;39.70
84141;DHT22;74257;52.540;13.416;2024-01-11T05:35:19;20.10;39.60
84141;DHT22;74257;52.540;13.416;2024-01-11T05:37:44;20.10;39.60
84141;DHT22;74257;52.540;13.416;2024-01-11T05:40:11;20.10;39.70
84141;DHT22;74257;52.540;13.416;2024-01-11T05:42:36;20.10;39.80
84141;DHT22;74257;52.540;13.416;2024-01-11T05:45:05;20.10;40.00
84141;DHT22;74257;52.540;13.416;2024-01-11T05:47:30;20.30;40.10
84141;DHT22;74257;52.540;13.416;2024-01-11T05:49:57;20.30;40.20
84141;DHT22;74257;52.540;13.416;2024-01-11T05:52:22;20.40;40.30
84141;DHT22;74257;52.540;13.416;2024-01-11T05:54:48;20.50;40.20
84141;DHT22;74257;52.540;13.416;2024-01-11T05:57:14;20.60;40.10
84141;DHT22;74257;52.540;13.416;2024-01-11T05:59:44;20.70;40.00
84141;DHT22;74257;52.540;13.416;2024-01-11T06:02:11;20.80;40.00
84141;DHT22;74257;52.540;13.416;2024-01-11T06:04:37;20.90;40.00
84141;DHT22;74257;52.540;13.416;2024-01-11T06:07:02;21.00;40.20
84141;DHT22;74257;52.540;13.416;2024-01-11T06:09:28;21.10;40.30
84141;DHT22;74257;52.540;13.416;2024-01-11T06:11:54;21.10;40.30
84141;DHT22;74257;52.540;13.416;2024-01-11T06:14:20;21.20;40.20
84141;DHT22;74257;52.540;13.416;2024-01-11T06:16:46;21.30;40.20
84141;DHT22;74257;52.540;13.416;2024-01-11T06:19:12;21.40;40.10
84141;DHT22;74257;52.540;13.416;2024-01-11T06:21:38;21.50;40.00
84141;DHT22;74257;52.540;13.416;2024-01-11T06:24:04;21.50;40.00
84141;DHT22;74257;52.540;13.416;2024-01-11T06:26:29;21.50;39.80
84141;DHT22;74257;52.540;13.416;2024-01-11T06:28:56;21.50;39.90
84141;DHT22;74257;52.540;13.416;2024-01-11T06:31:21;21.60;39.90
84141;DHT22;74257;52.540;13.416;2024-01-11T06:33:47;21.70;40.00
84141;DHT22;74257;52.540;13.416;2024-01-11T06:36:13;21.70;40.00
84141;DHT22;74257;52.540;13.416;2024-01-11T06:38:39;21.70;40.20
84141;DHT22;74257;52.540;13.416;2024-01-11T06:41:05;21.70;40.30
84141;DHT22;74257;52.540;13.416;2024-01-11T06:43:31;21.70;40.30
84141;DHT22;74257;52.540;13.416;2024-01-11T06:46:01;21.80;40.40
84141;DHT22;74257;52.540;13.416;2024-01-11T06:48:28;21.80;40.40
84141;DHT22;74257;52.540;13.416;2024-01-11T06:50:54;21.90;40.50
84141;DHT22;74257;52.540;13.416;2024-01-11T06:53:20;21.90;40.60
84141;DHT22;74257;52.540;13.416;2024-01-11T06:55:46;21.90;40.60
84141;DHT22;74257;52.540;13.416;2024-01-11T06:58:15;21.90;40.60
84141;DHT22;74257;52.540;13.416;2024-01-11T07:00:41;21.90;40.50
84141;DHT22;74257;52.540;13.416;2024-01-11T07:03:09;21.90;40.50
84141;DHT22;74257;52.540;13.416;2024-01-11T07:05:36;21.90;40.30
84141;DHT22;74257;52.540;13.416;2024-01-11T07:08:02;21.90;40.00
84141;DHT22;74257;52.540;13.416;2024-01-11T07:10:29;21.90;39.80
84141;DHT22;74257;52.540;13.416;2024-01-11T07:12:55;22.00;39.70
84141;DHT22;74257;52.540;13.416;2024-01-11T07:15:21;21.90;39.60
84141;DHT22;74257;52.540;13.416;2024-01-11T07:17:47;22.00;39.60
84141;DHT22;74257;52.540;13.416;2024-01-11T07:20:13;22.00;39.60
84141;DHT22;74257;52.540;13.416;2024-01-11T07:22:41;22.00;39.50
84141;DHT22;74257;52.540;13.416;2024-01-11T07:25:07;22.00;39.50
84141;DHT22;74257;52.540;13.416;2024-01-11T07:27:33;22.00;39.50
84141;DHT22;74257;52.540;13.416;2024-01-11T07:29:58;22.00;39.50
84141;DHT22;74257;52.540;13.416;2024-01-11T07:32:24;22.00;39.40
84141;DHT22;74257;52.540;13.416;2024-01-11T07:34:50;22.00;39.40
84141;DHT22;74257;52.540;13.416;2024-01-11T07:37:16;22.00;39.40
84141;DHT22;74257;52.540;13.416;2024-01-11T07:39:42;22.00;39.40
84141;DHT22;74257;52.540;13.416;2024-01-11T07:42:08;22.00;39.50
84141;DHT22;74257;52.540;13.416;2024-01-11T07:44:33;22.00;39.40
84141;DHT22;74257;52.540;13.416;2024-01-11T07:46:59;22.00;39.30
84141;DHT22;74257;52.540;13.416;2024-01-11T07:49:25;22.00;39.40
84141;DHT22;74257;52.540;13.416;2024-01-11T07:51:51;22.00;39.40
84141;DHT22;74257;52.540;13.416;2024-01-11T07:54:17;22.00;39.40
84141;DHT22;74257;52.540;13.416;2024-01-11T07:56:43;22.00;39.40
84141;DHT22;74257;52.540;13.416;2024-01-11T07:59:09;22.00;39.40
84141;DHT22;74257;52.540;13.416;2024-01-11T08:01:39;22.00;39.40
84141;DHT22;74257;52.540;13.416;2024-01-11T08:04:05;22.00;39.30
84141;DHT22;74257;52.540;13.416;2024-01-11T08:06:31;22.00;39.40
84141;DHT22;74257;52.540;13.416;2024-01-11T08:08:57;22.00;39.40
84141;DHT22;74257;52.540;13.416;2024-01-11T08:11:23;22.00;39.40
84141;DHT22;74257;52.540;13.416;2024-01-11T08:13:49;22.10;39.50
84141;DHT22;74257;52.540;13.416;2024-01-11T08:16:18;22.00;39.50
84141;DHT22;74257;52.540;13.416;2024-01-11T08:18:44;22.10;39.50
84141;DHT22;74257;52.540;13.416;2024-01-11T08:21:11;22.10;39.50
84141;DHT22;74257;52.540;13.416;2024-01-11T08:23:42;22.10;39.50
84141;DHT22;74257;52.540;13.416;2024-01-11T08:26:15;22.10;39.50
84141;DHT22;74257;52.540;13.416;2024-01-11T08:28:41;22.10;39.60
84141;DHT22;74257;52.540;13.416;2024-01-11T08:31:07;22.10;39.50
84141;DHT22;74257;52.540;13.416;2024-01-11T08:33:33;22.10;39.50
84141;DHT22;74257;52.540;13.416;2024-01-11T08:35:59;22.10;39.50
84141;DHT22;74257;52.540;13.416;2024-01-11T08:38:24;22.10;39.40
84141;DHT22;74257;52.540;13.416;2024-01-11T08:40:51;22.10;39.40
84141;DHT22;74257;52.540;13.416;2024-01-11T08:43:17;22.10;39.50
84141;DHT22;74257;52.540;13.416;2024-01-11T08:45:43;22.10;39.40
84141;DHT22;74257;52.540;13.416;2024-01-11T08:48:13;22.10;39.40
84141;DHT22;74257;52.540;13.416;2024-01-11T08:50:39;22.10;39.40
84141;DHT22;74257;52.540;13.416;2024-01-11T08:53:04;22.10;39.40
84141;DHT22;74257;52.540;13.416;2024-01-11T08:55:30;22.10;39.40
84141;DHT22;74257;52.540;13.416;2024-01-11T08:57:56;22.10;39.40
84141;DHT22;74257;52.540;13.416;2024-01-11T09:00:22;22.10;39.40
84141;DHT22;74257;52.540;13.416;2024-01-11T09:02:48;22.10;39.40
84141;DHT22;74257;52.540;13.416;2024-01-11T09:05:15;22.10;39.40
84141;DHT22;74257;52.540;13.416;2024-01-11T09:07:40;22.10;39.40
84141;DHT22;74257;52.540;13.416;2024-01-11T09:10:07;22.10;39.40
84141;DHT22;74257;52.540;13.416;2024-01-11T09:12:39;22.10;39.40
84141;DHT22;74257;52.540;13.416;2024-01-11T09:15:05;22.10;39.40
84141;DHT22;74257;52.540;13.416;2024-01-11T09:17:31;22.00;39.40
84141;DHT22;74257;52.540;13.416;2024-01-11T09:19:58;22.10;39.30
84141;DHT22;74257;52.540;13.416;2024-01-11T09:22:24;22.10;39.30
84141;DHT22;74257;52.540;13.416;2024-01-11T09:24:50;22.10;39.40
84141;DHT22;74257;52.540;13.416;2024-01-11T09:27:16;22.10;39.40
84141;DHT22;74257;52.540;13.416;2024-01-11T09:29:45;22.10;39.50
84141;DHT22;74257;52.540;13.416;2024-01-11T09:32:12;22.10;39.50
84141;DHT22;74257;52.540;13.416;2024-01-11T09:34:38;22.10;39.50
84141;DHT22;74257;52.540;13.416;2024-01-11T09:37:04;22.10;39.50
84141;DHT22;74257;52.540;13.416;2024-01-11T09:39:30;22.10;39.50
84141;DHT22;74257;52.540;13.416;2024-01-11T09:42:08;22.10;39.50
84141;DHT22;74257;52.540;13.416;2024-01-11T09:44:36;22.10;39.50
84141;DHT22;74257;52.540;13.416;2024-01-11T09:47:04;22.10;39.50
84141;DHT22;74257;52.540;13.416;2024-01-11T09:49:33;22.10;39.50
84141;DHT22;74257;52.540;13.416;2024-01-11T09:52:00;22.10;39.50
84141;DHT22;74257;52.540;13.416;2024-01-11T09:54:27;22.10;39.50
84141;DHT22;74257;52.540;13.416;2024-01-11T09:56:54;22.10;39.50
84141;DHT22;74257;52.540;13.416;2024-01-11T09:59:21;22.10;39.50
84141;DHT22;74257;52.540;13.416;2024-01-11T10:01:49;22.10;39.40
84141;DHT22;74257;52.540;13.416;2024-01-11T10:04:16;22.10;39.50
84141;DHT22;74257;52.540;13.416;2024-01-11T10:06:42;22.10;39.40
84141;DHT22;74257;52.540;13.416;2024-01-11T10:09:09;22.10;39.40
84141;DHT22;74257;52.540;13.416;2024-01-11T10:11:35;22.10;39.50
84141;DHT22;74257;52.540;13.416;2024-01-11T10:14:01;22.10;39.40
84141;DHT22;74257;52.540;13.416;2024-01-11T10:16:27;22.10;39.40
84141;DHT22;74257;52.540;13.416;2024-01-11T10:18:55;22.10;39.40
84141;DHT22;74257;52.540;13.416;2024-01-11T10:21:21;22.10;39.40
84141;DHT22;74257;52.540;13.416;2024-01-11T10:23:49;22.10;39.30
84141;DHT22;74257;52.540;13.416;2024-01-11T10:26:16;22.10;39.30
84141;DHT22;74257;52.540;13.416;2024-01-11T10:28:46;22.10;39.20
84141;DHT22;74257;52.540;13.416;2024-01-11T10:31:12;22.10;39.20
84141;DHT22;74257;52.540;13.416;2024-01-11T10:33:38;22.10;39.10
84141;DHT22;74257;52.540;13.416;2024-01-11T10:36:04;22.10;39.00
84141;DHT22;74257;52.540;13.416;2024-01-11T10:38:30;22.10;39.10
84141;DHT22;74257;52.540;13.416;2024-01-11T10:41:00;22.10;39.50
84141;DHT22;74257;52.540;13.416;2024-01-11T10:43:26;22.10;39.70
84141;DHT22;74257;52.540;13.416;2024-01-11T10:45:57;22.10;40.20
84141;DHT22;74257;52.540;13.416;2024-01-11T10:48:25;22.10;40.50
84141;DHT22;74257;52.540;13.416;2024-01-11T10:50:56;22.10;40.50
84141;DHT22;74257;52.540;13.416;2024-01-11T10:53:42;22.10;40.50
84141;DHT22;74257;52.540;13.416;2024-01-11T10:56:10;22.10;40.50
84141;DHT22;74257;52.540;13.416;2024-01-11T10:58:40;22.10;40.50
84141;DHT22;74257;52.540;13.416;2024-01-11T11:01:06;22.10;40.50
84141;DHT22;74257;52.540;13.416;2024-01-11T11:03:34;22.10;40.60
84141;DHT22;74257;52.540;13.416;2024-01-11T11:06:01;22.10;40.60
84141;DHT22;74257;52.540;13.416;2024-01-11T11:08:28;22.10;40.60
84141;DHT22;74257;52.540;13.416;2024-01-11T11:10:58;22.10;40.60
84141;DHT22;74257;52.540;13.416;2024-01-11T11:13:25;22.10;40.60
84141;DHT22;74257;52.540;13.416;2024-01-11T11:15:52;22.10;40.60
84141;DHT22;74257;52.540;13.416;2024-01-11T11:18:19;22.10;40.60
84141;DHT22;74257;52.540;13.416;2024-01-11T11:20:46;22.10;40.70
84141;DHT22;74257;52.540;13.416;2024-01-11T11:23:15;22.10;40.60
84141;DHT22;74257;52.540;13.416;2024-01-11T11:25:45;22.10;40.70
84141;DHT22;74257;52.540;13.416;2024-01-11T11:28:12;22.10;40.60
84141;DHT22;74257;52.540;13.416;2024-01-11T11:30:40;22.10;40.60
84141;DHT22;74257;52.540;13.416;2024-01-11T11:33:17;22.10;40.60
84141;DHT22;74257;52.540;13.416;2024-01-11T11:35:43;22.10;40.50
84141;DHT22;74257;52.540;13.416;2024-01-11T11:38:17;22.20;40.50
84141;DHT22;74257;52.540;13.416;2024-01-11T11:40:46;22.10;40.50
84141;DHT22;74257;52.540;13.416;2024-01-11T11:43:13;22.10;40.50
84141;DHT22;74257;52.540;13.416;2024-01-11T11:45:41;22.10;40.50
84141;DHT22;74257;52.540;13.416;2024-01-11T11:51:12;22.10;40.60
84141;DHT22;74257;52.540;13.416;2024-01-11T11:53:40;22.10;40.60
84141;DHT22;74257;52.540;13.416;2024-01-11T11:56:07;22.10;40.70
84141;DHT22;74257;52.540;13.416;2024-01-11T11:58:35;22.10;40.60
84141;DHT22;74257;52.540;13.416;2024-01-11T12:01:02;22.10;40.60
84141;DHT22;74257;52.540;13.416;2024-01-11T12:03:35;22.10;40.60
84141;DHT22;74257;52.540;13.416;2024-01-11T12:06:06;22.10;40.60
84141;DHT22;74257;52.540;13.416;2024-01-11T12:08:33;22.10;40.60
84141;DHT22;74257;52.540;13.416;2024-01-11T12:10:59;22.10;40.60
84141;DHT22;74257;52.540;13.416;2024-01-11T12:13:26;22.10;40.60
84141;DHT22;74257;52.540;13.416;2024-01-11T12:15:51;22.10;40.60
84141;DHT22;74257;52.540;13.416;2024-01-11T12:18:18;22.10;40.60
84141;DHT22;74257;52.540;13.416;2024-01-11T12:20:44;22.10;40.60
84141;DHT22;74257;52.540;13.416;2024-01-11T12:23:11;22.10;40.60
84141;DHT22;74257;52.540;13.416;2024-01-11T12:25:43;22.10;40.50
84141;DHT22;74257;52.540;13.416;2024-01-11T12:28:09;22.10;40.50
84141;DHT22;74257;52.540;13.416;2024-01-11T12:30:35;22.10;40.50
84141;DHT22;74257;52.540;13.416;2024-01-11T12:33:02;22.10;40.50
84141;DHT22;74257;52.540;13.416;2024-01-11T12:35:28;22.10;40.50
84141;DHT22;74257;52.540;13.416;2024-01-11T12:37:55;22.10;40.50
84141;DHT22;74257;52.540;13.416;2024-01-11T12:40:21;22.10;40.50
84141;DHT22;74257;52.540;13.416;2024-01-11T12:42:49;22.10;40.50
84141;DHT22;74257;52.540;13.416;2024-01-11T12:45:16;22.20;40.50
84141;DHT22;74257;52.540;13.416;2024-01-11T12:47:42;22.10;40.50
84141;DHT22;74257;52.540;13.416;2024-01-11T12:50:09;22.20;40.50
84141;DHT22;74257;52.540;13.416;2024-01-11T12:52:35;22.10;40.40
84141;DHT22;74257;52.540;13.416;2024-01-11T12:55:00;22.20;40.40
84141;DHT22;74257;52.540;13.416;2024-01-11T12:57:26;22.20;40.50
84141;DHT22;74257;52.540;13.416;2024-01-11T12:59:52;22.20;40.40
84141;DHT22;74257;52.540;13.416;2024-01-11T13:02:19;22.20;40.50
84141;DHT22;74257;52.540;13.416;2024-01-11T13:04:45;22.20;40.50
84141;DHT22;74257;52.540;13.416;2024-01-11T13:07:14;22.20;40.50
84141;DHT22;74257;52.540;13.416;2024-01-11T13:09:41;22.20;40.50
84141;DHT22;74257;52.540;13.416;2024-01-11T13:12:07;22.20;40.50
84141;DHT22;74257;52.540;13.416;2024-01-11T13:14:33;22.20;40.50
84141;DHT22;74257;52.540;13.416;2024-01-11T13:16:59;22.20;40.50
84141;DHT22;74257;52.540;13.416;2024-01-11T13:19:25;22.20;40.60
84141;DHT22;74257;52.540;13.416;2024-01-11T13:21:51;22.20;40.50
84141;DHT22;74257;52.540;13.416;2024-01-11T13:24:17;22.20;40.50
84141;DHT22;74257;52.540;13.416;2024-01-11T13:26:43;22.20;40.60
84141;DHT22;74257;52.540;13.416;2024-01-11T13:29:09;22.20;40.60
84141;DHT22;74257;52.540;13.416;2024-01-11T13:31:37;22.20;40.60
84141;DHT22;74257;52.540;13.416;2024-01-11T13:34:02;22.20;40.70
84141;DHT22;74257;52.540;13.416;2024-01-11T13:36:29;22.20;40.70
84141;DHT22;74257;52.540;13.416;2024-01-11T13:38:55;22.20;40.80
84141;DHT22;74257;52.540;13.416;2024-01-11T13:41:21;22.20;40.80
84141;DHT22;74257;52.540;13.416;2024-01-11T13:43:46;22.20;40.80
84141;DHT22;74257;52.540;13.416;2024-01-11T13:46:12;22.10;40.80
84141;DHT22;74257;52.540;13.416;2024-01-11T13:48:42;22.10;40.70
84141;DHT22;74257;52.540;13.416;2024-01-11T13:51:08;22.10;40.70
84141;DHT22;74257;52.540;13.416;2024-01-11T13:53:35;22.10;40.70
84141;DHT22;74257;52.540;13.416;2024-01-11T13:56:01;22.10;40.80
84141;DHT22;74257;52.540;13.416;2024-01-11T13:58:27;22.10;40.70
84141;DHT22;74257;52.540;13.416;2024-01-11T14:00:53;22.10;40.80
84141;DHT22;74257;52.540;13.416;2024-01-11T14:03:19;22.10;40.80
84141;DHT22;74257;52.540;13.416;2024-01-11T14:05:45;22.20;40.70
84141;DHT22;74257;52.540;13.416;2024-01-11T14:08:11;22.20;40.70
84141;DHT22;74257;52.540;13.416;2024-01-11T14:10:37;22.20;40.70
84141;DHT22;74257;52.540;13.416;2024-01-11T14:13:03;22.20;40.70
84141;DHT22;74257;52.540;13.416;2024-01-11T14:15:29;22.20;40.70
84141;DHT22;74257;52.540;13.416;2024-01-11T14:17:56;22.20;40.70
84141;DHT22;74257;52.540;13.416;2024-01-11T14:20:22;22.20;40.60
84141;DHT22;74257;52.540;13.416;2024-01-11T14:22:49;22.20;40.60
84141;DHT22;74257;52.540;13.416;2024-01-11T14:25:16;22.20;40.60
84141;DHT22;74257;52.540;13.416;2024-01-11T14:27:42;22.20;40.60
84141;DHT22;74257;52.540;13.416;2024-01-11T14:30:08;22.20;40.60
84141;DHT22;74257;52.540;13.416;2024-01-11T14:32:35;22.20;40.50
84141;DHT22;74257;52.540;13.416;2024-01-11T14:35:01;22.20;40.50
84141;DHT22;74257;52.540;13.416;2024-01-11T14:37:32;22.20;40.50
84141;DHT22;74257;52.540;13.416;2024-01-11T14:39:59;22.20;40.50
84141;DHT22;74257;52.540;13.416;2024-01-11T14:42:25;22.20;40.40
84141;DHT22;74257;52.540;13.416;2024-01-11T14:44:51;22.20;40.40
84141;DHT22;74257;52.540;13.416;2024-01-11T14:47:18;22.20;40.40
84141;DHT22;74257;52.540;13.416;2024-01-11T14:49:44;22.20;40.30
84141;DHT22;74257;52.540;13.416;2024-01-11T14:52:10;22.20;40.20
84141;DHT22;74257;52.540;13.416;2024-01-11T14:54:36;22.20;40.10
84141;DHT22;74257;52.540;13.416;2024-01-11T14:57:01;22.20;40.00
84141;DHT22;74257;52.540;13.416;2024-01-11T14:59:28;22.20;40.00
84141;DHT22;74257;52.540;13.416;2024-01-11T15:01:54;22.20;39.90
84141;DHT22;74257;52.540;13.416;2024-01-11T15:04:20;22.20;40.00
84141;DHT22;74257;52.540;13.416;2024-01-11T15:06:47;22.20;39.90
84141;DHT22;74257;52.540;13.416;2024-01-11T15:09:13;22.20;40.00
84141;DHT22;74257;52.540;13.416;2024-01-11T15:11:39;22.20;40.20
84141;DHT22;74257;52.540;13.416;2024-01-11T15:14:06;22.20;40.60